sensor_id;sensor_type;location;lat;lon;timestamp;temperature;humidity
19945;DHT22;10134;50.952;6.930;2023-09-19T00:00:44;18.80;99.90
19945;DHT22;10134;50.952;6.930;2023-09-19T00:03:15;18.80;99.90
19945;DHT22;10134;50.952;6.930;2023-09-19T00:05:44;18.80;99.90
19945;DHT22;10134;50.952;6.930;2023-09-19T00:08:13;18.80;99.90
19945;DHT22;10134;50.952;6.930;2023-09-19T00:10:44;18.70;99.90
19945;DHT22;10134;50.952;6.930;2023-09-19T00:13:13;18.70;99.90
19945;DHT22;10134;50.952;6.930;2023-09-19T00:15:44;18.70;99.90
19945;DHT22;10134;50.952;6.930;2023-09-19T00:18:17;18.70;99.90
19945;DHT22;10134;50.952;6.930;2023-09-19T00:20:48;18.70;99.90
19945;DHT22;10134;50.952;6.930;2023-09-19T00:23:18;18.70;99.90
19945;DHT22;10134;50.952;6.930;2023-09-19T00:25:49;18.60;99.90
19945;DHT22;10134;50.952;6.930;2023-09-19T00:28:18;18.60;99.90
19945;DHT22;10134;50.952;6.930;2023-09-19T00:30:47;18.60;99.90
19945;DHT22;10134;50.952;6.930;2023-09-19T00:33:18;18.60;99.90
19945;DHT22;10134;50.952;6.930;2023-09-19T00:35:47;18.60;99.90
19945;DHT22;10134;50.952;6.930;2023-09-19T00:38:16;18.60;99.90
19945;DHT22;10134;50.952;6.930;2023-09-19T00:40:49;18.60;99.90
19945;DHT22;10134;50.952;6.930;2023-09-19T00:43:19;18.60;99.90
19945;DHT22;10134;50.952;6.930;2023-09-19T00:45:50;18.60;99.90
19945;DHT22;10134;50.952;6.930;2023-09-19T00:48:21;18.50;99.90
19945;DHT22;10134;50.952;6.930;2023-09-19T00:50:51;18.50;99.90
19945;DHT22;10134;50.952;6.930;2023-09-19T00:53:22;18.50;99.90
19945;DHT22;10134;50.952;6.930;2023-09-19T00:55:54;18.50;99.90
19945;DHT22;10134;50.952;6.930;2023-09-19T00:58:23;18.50;99.90
19945;DHT22;10134;50.952;6.930;2023-09-19T01:00:52;18.40;99.90
19945;DHT22;10134;50.952;6.930;2023-09-19T01:03:22;18.40;99.90
19945;DHT22;10134;50.952;6.930;2023-09-19T01:05:51;18.40;99.90
19945;DHT22;10134;50.952;6.930;2023-09-19T01:08:20;18.40;99.90
19945;DHT22;10134;50.952;6.930;2023-09-19T01:10:55;18.40;99.90
19945;DHT22;10134;50.952;6.930;2023-09-19T01:13:31;18.40;99.90
19945;DHT22;10134;50.952;6.930;2023-09-19T01:16:08;18.40;99.90
19945;DHT22;10134;50.952;6.930;2023-09-19T01:18:46;18.40;99.90
19945;DHT22;10134;50.952;6.930;2023-09-19T01:21:22;18.40;99.90
19945;DHT22;10134;50.952;6.930;2023-09-19T01:27:23;18.40;99.90
19945;DHT22;10134;50.952;6.930;2023-09-19T01:30:08;18.40;99.90
19945;DHT22;10134;50.952;6.930;2023-09-19T01:32:38;18.40;99.90
19945;DHT22;10134;50.952;6.930;2023-09-19T01:35:08;18.30;99.90
19945;DHT22;10134;50.952;6.930;2023-09-19T01:37:40;18.40;99.90
19945;DHT22;10134;50.952;6.930;2023-09-19T01:40:13;18.30;99.90
19945;DHT22;10134;50.952;6.930;2023-09-19T01:42:49;18.30;99.90
19945;DHT22;10134;50.952;6.930;2023-09-19T01:45:29;18.30;99.90
19945;DHT22;10134;50.952;6.930;2023-09-19T01:48:10;18.30;99.90
19945;DHT22;10134;50.952;6.930;2023-09-19T01:50:46;18.20;99.90
19945;DHT22;10134;50.952;6.930;2023-09-19T01:53:23;18.20;99.90
19945;DHT22;10134;50.952;6.930;2023-09-19T01:55:55;18.20;99.90
19945;DHT22;10134;50.952;6.930;2023-09-19T01:58:31;18.10;99.90
19945;DHT22;10134;50.952;6.930;2023-09-19T02:01:04;18.10;99.90
19945;DHT22;10134;50.952;6.930;2023-09-19T02:03:35;18.10;99.90
19945;DHT22;10134;50.952;6.930;2023-09-19T02:06:05;18.10;99.90
19945;DHT22;10134;50.952;6.930;2023-09-19T02:08:39;18.10;99.90
19945;DHT22;10134;50.952;6.930;2023-09-19T02:11:07;18.10;99.90
19945;DHT22;10134;50.952;6.930;2023-09-19T02:13:36;18.00;99.90
19945;DHT22;10134;50.952;6.930;2023-09-19T02:16:07;18.00;99.90
19945;DHT22;10134;50.952;6.930;2023-09-19T02:18:36;18.00;99.90
19945;DHT22;10134;50.952;6.930;2023-09-19T02:21:06;18.00;99.90
19945;DHT22;10134;50.952;6.930;2023-09-19T02:23:38;18.00;99.90
19945;DHT22;10134;50.952;6.930;2023-09-19T02:26:08;18.00;99.90
19945;DHT22;10134;50.952;6.930;2023-09-19T02:28:39;18.00;99.90
19945;DHT22;10134;50.952;6.930;2023-09-19T02:31:10;18.00;99.90
19945;DHT22;10134;50.952;6.930;2023-09-19T02:33:39;18.00;99.90
19945;DHT22;10134;50.952;6.930;2023-09-19T02:36:08;17.90;99.90
19945;DHT22;10134;50.952;6.930;2023-09-19T02:38:37;17.90;99.90
19945;DHT22;10134;50.952;6.930;2023-09-19T02:41:06;17.90;99.90
19945;DHT22;10134;50.952;6.930;2023-09-19T02:43:37;17.90;99.90
19945;DHT22;10134;50.952;6.930;2023-09-19T02:46:07;17.90;99.90
19945;DHT22;10134;50.952;6.930;2023-09-19T02:48:38;17.90;99.90
19945;DHT22;10134;50.952;6.930;2023-09-19T02:51:06;17.90;99.90
19945;DHT22;10134;50.952;6.930;2023-09-19T02:53:35;17.90;99.90
19945;DHT22;10134;50.952;6.930;2023-09-19T02:56:04;17.90;99.90
19945;DHT22;10134;50.952;6.930;2023-09-19T02:58:34;17.90;99.90
19945;DHT22;10134;50.952;6.930;2023-09-19T03:01:10;17.90;99.90
19945;DHT22;10134;50.952;6.930;2023-09-19T03:03:41;17.80;99.90
19945;DHT22;10134;50.952;6.930;2023-09-19T03:06:11;17.80;99.90
19945;DHT22;10134;50.952;6.930;2023-09-19T03:08:40;17.80;99.90
19945;DHT22;10134;50.952;6.930;2023-09-19T03:11:10;17.80;99.90
19945;DHT22;10134;50.952;6.930;2023-09-19T03:13:41;17.80;99.90
19945;DHT22;10134;50.952;6.930;2023-09-19T03:16:13;17.80;99.90
19945;DHT22;10134;50.952;6.930;2023-09-19T03:18:44;17.80;99.90
19945;DHT22;10134;50.952;6.930;2023-09-19T03:21:14;17.80;99.90
19945;DHT22;10134;50.952;6.930;2023-09-19T03:23:43;17.70;99.90
19945;DHT22;10134;50.952;6.930;2023-09-19T03:26:13;17.70;99.90
19945;DHT22;10134;50.952;6.930;2023-09-19T03:28:43;17.70;99.90
19945;DHT22;10134;50.952;6.930;2023-09-19T03:31:13;17.70;99.90
19945;DHT22;10134;50.952;6.930;2023-09-19T03:33:43;17.70;99.90
19945;DHT22;10134;50.952;6.930;2023-09-19T03:36:12;17.70;99.90
19945;DHT22;10134;50.952;6.930;2023-09-19T03:38:42;17.70;99.90
19945;DHT22;10134;50.952;6.930;2023-09-19T03:41:10;17.60;99.90
19945;DHT22;10134;50.952;6.930;2023-09-19T03:43:41;17.60;99.90
19945;DHT22;10134;50.952;6.930;2023-09-19T03:46:10;17.60;99.90
19945;DHT22;10134;50.952;6.930;2023-09-19T03:48:44;17.60;99.90
19945;DHT22;10134;50.952;6.930;2023-09-19T03:51:13;17.60;99.90
19945;DHT22;10134;50.952;6.930;2023-09-19T03:53:42;17.60;99.90
19945;DHT22;10134;50.952;6.930;2023-09-19T03:56:10;17.50;99.90
19945;DHT22;10134;50.952;6.930;2023-09-19T03:58:39;17.50;99.90
19945;DHT22;10134;50.952;6.930;2023-09-19T04:01:08;17.50;99.90
19945;DHT22;10134;50.952;6.930;2023-09-19T04:03:37;17.50;99.90
19945;DHT22;10134;50.952;6.930;2023-09-19T04:06:16;17.50;99.90
19945;DHT22;10134;50.952;6.930;2023-09-19T04:08:45;17.50;99.90
19945;DHT22;10134;50.952;6.930;2023-09-19T04:11:14;17.50;99.90
19945;DHT22;10134;50.952;6.930;2023-09-19T04:13:43;17.50;99.90
19945;DHT22;10134;50.952;6.930;2023-09-19T04:16:12;17.50;99.90
19945;DHT22;10134;50.952;6.930;2023-09-19T04:18:41;17.40;99.90
19945;DHT22;10134;50.952;6.930;2023-09-19T04:21:09;17.40;99.90
19945;DHT22;10134;50.952;6.930;2023-09-19T04:23:40;17.40;99.90
19945;DHT22;10134;50.952;6.930;2023-09-19T04:26:08;17.40;99.90
19945;DHT22;10134;50.952;6.930;2023-09-19T04:28:37;17.40;99.90
19945;DHT22;10134;50.952;6.930;2023-09-19T04:31:07;17.40;99.90
19945;DHT22;10134;50.952;6.930;2023-09-19T04:33:38;17.40;99.90
19945;DHT22;10134;50.952;6.930;2023-09-19T04:36:07;17.30;99.90
19945;DHT22;10134;50.952;6.930;2023-09-19T04:38:57;17.30;99.90
19945;DHT22;10134;50.952;6.930;2023-09-19T04:41:25;17.30;99.90
19945;DHT22;10134;50.952;6.930;2023-09-19T04:43:54;17.30;99.90
19945;DHT22;10134;50.952;6.930;2023-09-19T04:46:23;17.30;99.90
19945;DHT22;10134;50.952;6.930;2023-09-19T04:48:52;17.20;99.90
19945;DHT22;10134;50.952;6.930;2023-09-19T04:51:21;17.20;99.90
19945;DHT22;10134;50.952;6.930;2023-09-19T04:53:49;17.20;99.90
19945;DHT22;10134;50.952;6.930;2023-09-19T04:56:19;17.20;99.90
19945;DHT22;10134;50.952;6.930;2023-09-19T04:58:48;17.20;99.90
19945;DHT22;10134;50.952;6.930;2023-09-19T05:01:17;17.20;99.90
19945;DHT22;10134;50.952;6.930;2023-09-19T05:03:45;17.20;99.90
19945;DHT22;10134;50.952;6.930;2023-09-19T05:06:19;17.20;99.90
19945;DHT22;10134;50.952;6.930;2023-09-19T05:08:49;17.10;99.90
19945;DHT22;10134;50.952;6.930;2023-09-19T05:11:20;17.10;99.90
19945;DHT22;10134;50.952;6.930;2023-09-19T05:13:50;17.10;99.90
19945;DHT22;10134;50.952;6.930;2023-09-19T05:16:20;17.10;99.90
19945;DHT22;10134;50.952;6.930;2023-09-19T05:18:49;17.10;99.90
19945;DHT22;10134;50.952;6.930;2023-09-19T05:21:19;17.10;99.90
19945;DHT22;10134;50.952;6.930;2023-09-19T05:23:48;17.10;99.90
19945;DHT22;10134;50.952;6.930;2023-09-19T05:26:17;17.10;99.90
19945;DHT22;10134;50.952;6.930;2023-09-19T05:28:47;17.10;99.90
19945;DHT22;10134;50.952;6.930;2023-09-19T05:31:16;17.10;99.90
19945;DHT22;10134;50.952;6.930;2023-09-19T05:33:45;17.00;99.90
19945;DHT22;10134;50.952;6.930;2023-09-19T05:36:14;17.00;99.90
19945;DHT22;10134;50.952;6.930;2023-09-19T05:38:44;17.00;99.90
19945;DHT22;10134;50.952;6.930;2023-09-19T05:41:13;17.00;99.90
19945;DHT22;10134;50.952;6.930;2023-09-19T05:43:42;16.90;99.90
19945;DHT22;10134;50.952;6.930;2023-09-19T05:46:12;16.90;99.90
19945;DHT22;10134;50.952;6.930;2023-09-19T05:48:43;16.90;99.90
19945;DHT22;10134;50.952;6.930;2023-09-19T05:51:15;16.90;99.90
19945;DHT22;10134;50.952;6.930;2023-09-19T05:53:45;16.90;99.90
19945;DHT22;10134;50.952;6.930;2023-09-19T05:56:15;17.00;99.90
19945;DHT22;10134;50.952;6.930;2023-09-19T05:58:46;17.00;99.90
19945;DHT22;10134;50.952;6.930;2023-09-19T06:01:16;17.00;99.90
19945;DHT22;10134;50.952;6.930;2023-09-19T06:03:45;17.00;99.90
19945;DHT22;10134;50.952;6.930;2023-09-19T06:06:15;17.00;99.90
19945;DHT22;10134;50.952;6.930;2023-09-19T06:08:43;17.00;99.90
19945;DHT22;10134;50.952;6.930;2023-09-19T06:11:13;17.00;99.90
19945;DHT22;10134;50.952;6.930;2023-09-19T06:13:41;17.00;99.90
19945;DHT22;10134;50.952;6.930;2023-09-19T06:16:10;17.00;99.90
19945;DHT22;10134;50.952;6.930;2023-09-19T06:18:40;17.00;99.90
19945;DHT22;10134;50.952;6.930;2023-09-19T06:21:11;17.00;99.90
19945;DHT22;10134;50.952;6.930;2023-09-19T06:23:40;17.00;99.90
19945;DHT22;10134;50.952;6.930;2023-09-19T06:26:09;17.00;99.90
19945;DHT22;10134;50.952;6.930;2023-09-19T06:28:37;17.00;99.90
19945;DHT22;10134;50.952;6.930;2023-09-19T06:31:06;17.00;99.90
19945;DHT22;10134;50.952;6.930;2023-09-19T06:33:37;17.00;99.90
19945;DHT22;10134;50.952;6.930;2023-09-19T06:36:08;17.00;99.90
19945;DHT22;10134;50.952;6.930;2023-09-19T06:38:37;17.00;99.90
19945;DHT22;10134;50.952;6.930;2023-09-19T06:41:08;17.00;99.90
19945;DHT22;10134;50.952;6.930;2023-09-19T06:43:37;17.00;99.90
19945;DHT22;10134;50.952;6.930;2023-09-19T06:46:07;17.00;99.90
19945;DHT22;10134;50.952;6.930;2023-09-19T06:48:37;17.00;99.90
19945;DHT22;10134;50.952;6.930;2023-09-19T06:51:06;17.10;99.90
19945;DHT22;10134;50.952;6.930;2023-09-19T06:53:36;17.10;99.90
19945;DHT22;10134;50.952;6.930;2023-09-19T06:56:05;17.10;99.90
19945;DHT22;10134;50.952;6.930;2023-09-19T06:58:34;17.10;99.90
19945;DHT22;10134;50.952;6.930;2023-09-19T07:01:04;17.10;99.90
19945;DHT22;10134;50.952;6.930;2023-09-19T07:03:32;17.10;99.90
19945;DHT22;10134;50.952;6.930;2023-09-19T07:06:01;17.10;99.90
19945;DHT22;10134;50.952;6.930;2023-09-19T07:08:32;17.20;99.90
19945;DHT22;10134;50.952;6.930;2023-09-19T07:11:02;17.20;99.90
19945;DHT22;10134;50.952;6.930;2023-09-19T07:13:33;17.20;99.90
19945;DHT22;10134;50.952;6.930;2023-09-19T07:16:02;17.20;99.90
19945;DHT22;10134;50.952;6.930;2023-09-19T07:18:37;17.20;99.90
19945;DHT22;10134;50.952;6.930;2023-09-19T07:21:05;17.30;99.90
19945;DHT22;10134;50.952;6.930;2023-09-19T07:23:34;17.30;99.90
19945;DHT22;10134;50.952;6.930;2023-09-19T07:26:04;17.30;99.90
19945;DHT22;10134;50.952;6.930;2023-09-19T07:28:33;17.40;99.90
19945;DHT22;10134;50.952;6.930;2023-09-19T07:31:04;17.40;99.90
19945;DHT22;10134;50.952;6.930;2023-09-19T07:33:34;17.40;99.90
19945;DHT22;10134;50.952;6.930;2023-09-19T07:36:03;17.40;99.90
19945;DHT22;10134;50.952;6.930;2023-09-19T07:38:32;17.40;99.90
19945;DHT22;10134;50.952;6.930;2023-09-19T07:41:04;17.50;99.90
19945;DHT22;10134;50.952;6.930;2023-09-19T07:43:33;17.50;99.90
19945;DHT22;10134;50.952;6.930;2023-09-19T07:46:05;17.50;99.90
19945;DHT22;10134;50.952;6.930;2023-09-19T07:48:36;17.50;99.90
19945;DHT22;10134;50.952;6.930;2023-09-19T07:51:06;17.60;99.90
19945;DHT22;10134;50.952;6.930;2023-09-19T07:53:36;17.60;99.90
19945;DHT22;10134;50.952;6.930;2023-09-19T07:56:08;17.70;99.90
19945;DHT22;10134;50.952;6.930;2023-09-19T07:58:39;17.70;99.90
19945;DHT22;10134;50.952;6.930;2023-09-19T08:01:11;17.70;99.90
19945;DHT22;10134;50.952;6.930;2023-09-19T08:03:41;17.80;99.90
19945;DHT22;10134;50.952;6.930;2023-09-19T08:06:10;17.80;99.90
19945;DHT22;10134;50.952;6.930;2023-09-19T08:08:41;17.80;99.90
19945;DHT22;10134;50.952;6.930;2023-09-19T08:11:12;17.90;99.90
19945;DHT22;10134;50.952;6.930;2023-09-19T08:13:42;17.90;99.90
19945;DHT22;10134;50.952;6.930;2023-09-19T08:16:15;17.90;99.90
19945;DHT22;10134;50.952;6.930;2023-09-19T08:18:47;18.00;99.90
19945;DHT22;10134;50.952;6.930;2023-09-19T08:21:23;18.00;99.90
19945;DHT22;10134;50.952;6.930;2023-09-19T08:23:53;18.10;99.90
19945;DHT22;10134;50.952;6.930;2023-09-19T08:26:23;18.10;99.90
19945;DHT22;10134;50.952;6.930;2023-09-19T08:28:52;18.20;99.90
19945;DHT22;10134;50.952;6.930;2023-09-19T08:31:20;18.20;99.90
19945;DHT22;10134;50.952;6.930;2023-09-19T08:33:50;18.30;99.90
19945;DHT22;10134;50.952;6.930;2023-09-19T08:36:21;18.30;99.90
19945;DHT22;10134;50.952;6.930;2023-09-19T08:38:49;18.40;99.90
19945;DHT22;10134;50.952;6.930;2023-09-19T08:41:18;18.40;99.90
19945;DHT22;10134;50.952;6.930;2023-09-19T08:43:48;18.50;99.90
19945;DHT22;10134;50.952;6.930;2023-09-19T08:46:30;18.50;99.90
19945;DHT22;10134;50.952;6.930;2023-09-19T08:49:03;18.60;99.90
19945;DHT22;10134;50.952;6.930;2023-09-19T08:51:40;18.60;99.90
19945;DHT22;10134;50.952;6.930;2023-09-19T08:54:19;18.60;99.90
19945;DHT22;10134;50.952;6.930;2023-09-19T08:56:54;18.70;99.90
19945;DHT22;10134;50.952;6.930;2023-09-19T08:59:24;18.70;99.90
19945;DHT22;10134;50.952;6.930;2023-09-19T09:01:55;18.70;99.90
19945;DHT22;10134;50.952;6.930;2023-09-19T09:04:28;18.70;99.90
19945;DHT22;10134;50.952;6.930;2023-09-19T09:06:58;18.80;99.90
19945;DHT22;10134;50.952;6.930;2023-09-19T09:09:28;18.90;99.90
19945;DHT22;10134;50.952;6.930;2023-09-19T09:11:58;18.90;99.90
19945;DHT22;10134;50.952;6.930;2023-09-19T09:14:28;19.00;99.90
19945;DHT22;10134;50.952;6.930;2023-09-19T09:17:00;19.00;99.90
19945;DHT22;10134;50.952;6.930;2023-09-19T09:19:33;19.00;99.90
19945;DHT22;10134;50.952;6.930;2023-09-19T09:22:08;19.00;99.90
19945;DHT22;10134;50.952;6.930;2023-09-19T09:24:38;19.10;99.90
19945;DHT22;10134;50.952;6.930;2023-09-19T09:27:21;19.10;99.90
19945;DHT22;10134;50.952;6.930;2023-09-19T09:29:55;19.10;99.90
19945;DHT22;10134;50.952;6.930;2023-09-19T09:32:25;19.20;99.90
19945;DHT22;10134;50.952;6.930;2023-09-19T09:34:57;19.10;99.90
19945;DHT22;10134;50.952;6.930;2023-09-19T09:37:29;19.20;99.90
19945;DHT22;10134;50.952;6.930;2023-09-19T09:40:02;19.20;99.90
19945;DHT22;10134;50.952;6.930;2023-09-19T09:42:47;19.20;99.90
19945;DHT22;10134;50.952;6.930;2023-09-19T09:45:19;19.30;99.90
19945;DHT22;10134;50.952;6.930;2023-09-19T09:47:59;19.30;99.90
19945;DHT22;10134;50.952;6.930;2023-09-19T09:50:31;19.40;99.90
19945;DHT22;10134;50.952;6.930;2023-09-19T09:53:21;19.40;99.90
19945;DHT22;10134;50.952;6.930;2023-09-19T09:56:03;19.50;99.90
19945;DHT22;10134;50.952;6.930;2023-09-19T09:58:34;19.50;99.90
19945;DHT22;10134;50.952;6.930;2023-09-19T10:01:05;19.50;99.90
19945;DHT22;10134;50.952;6.930;2023-09-19T10:03:43;19.60;99.90
19945;DHT22;10134;50.952;6.930;2023-09-19T10:06:16;19.60;99.90
19945;DHT22;10134;50.952;6.930;2023-09-19T10:09:03;19.70;99.90
19945;DHT22;10134;50.952;6.930;2023-09-19T10:11:41;19.70;99.90
19945;DHT22;10134;50.952;6.930;2023-09-19T10:14:12;19.80;99.90
19945;DHT22;10134;50.952;6.930;2023-09-19T10:16:46;19.80;99.90
19945;DHT22;10134;50.952;6.930;2023-09-19T10:19:20;19.80;99.90
19945;DHT22;10134;50.952;6.930;2023-09-19T10:21:54;19.90;99.90
19945;DHT22;10134;50.952;6.930;2023-09-19T10:24:26;19.90;99.90
19945;DHT22;10134;50.952;6.930;2023-09-19T10:26:56;19.90;99.90
19945;DHT22;10134;50.952;6.930;2023-09-19T10:29:25;20.00;99.90
19945;DHT22;10134;50.952;6.930;2023-09-19T10:31:59;20.00;99.90
19945;DHT22;10134;50.952;6.930;2023-09-19T10:34:34;20.10;99.90
19945;DHT22;10134;50.952;6.930;2023-09-19T10:37:12;20.20;99.90
19945;DHT22;10134;50.952;6.930;2023-09-19T10:39:45;20.20;99.90
19945;DHT22;10134;50.952;6.930;2023-09-19T10:42:18;20.20;99.90
19945;DHT22;10134;50.952;6.930;2023-09-19T10:44:51;20.30;99.90
19945;DHT22;10134;50.952;6.930;2023-09-19T10:47:22;20.30;99.90
19945;DHT22;10134;50.952;6.930;2023-09-19T10:49:55;20.40;99.90
19945;DHT22;10134;50.952;6.930;2023-09-19T10:52:25;20.40;99.90
19945;DHT22;10134;50.952;6.930;2023-09-19T10:54:57;20.50;99.90
19945;DHT22;10134;50.952;6.930;2023-09-19T10:57:29;20.50;99.90
19945;DHT22;10134;50.952;6.930;2023-09-19T11:00:04;20.50;99.90
19945;DHT22;10134;50.952;6.930;2023-09-19T11:03:18;20.50;99.90
19945;DHT22;10134;50.952;6.930;2023-09-19T11:06:16;20.60;99.90
19945;DHT22;10134;50.952;6.930;2023-09-19T11:08:56;20.60;99.90
19945;DHT22;10134;50.952;6.930;2023-09-19T11:11:43;20.60;99.90
19945;DHT22;10134;50.952;6.930;2023-09-19T11:14:14;20.70;99.90
19945;DHT22;10134;50.952;6.930;2023-09-19T11:20:25;20.70;99.90
19945;DHT22;10134;50.952;6.930;2023-09-19T11:23:22;20.70;99.90
19945;DHT22;10134;50.952;6.930;2023-09-19T11:25:52;20.80;99.90
19945;DHT22;10134;50.952;6.930;2023-09-19T11:28:29;20.80;99.90
19945;DHT22;10134;50.952;6.930;2023-09-19T11:34:42;20.90;99.90
19945;DHT22;10134;50.952;6.930;2023-09-19T11:40:44;21.00;99.40
19945;DHT22;10134;50.952;6.930;2023-09-19T11:43:31;21.00;98.80
19945;DHT22;10134;50.952;6.930;2023-09-19T11:46:05;21.00;98.30
19945;DHT22;10134;50.952;6.930;2023-09-19T11:48:41;21.00;98.40
19945;DHT22;10134;50.952;6.930;2023-09-19T11:51:16;21.10;98.60
19945;DHT22;10134;50.952;6.930;2023-09-19T11:53:50;21.10;98.20
19945;DHT22;10134;50.952;6.930;2023-09-19T11:56:22;21.20;98.10
19945;DHT22;10134;50.952;6.930;2023-09-19T11:58:53;21.20;98.20
19945;DHT22;10134;50.952;6.930;2023-09-19T12:01:25;21.30;97.40
19945;DHT22;10134;50.952;6.930;2023-09-19T12:04:08;21.30;97.10
19945;DHT22;10134;50.952;6.930;2023-09-19T12:06:39;21.30;96.40
19945;DHT22;10134;50.952;6.930;2023-09-19T12:09:12;21.30;96.20
19945;DHT22;10134;50.952;6.930;2023-09-19T12:11:45;21.40;96.20
19945;DHT22;10134;50.952;6.930;2023-09-19T12:14:22;21.40;95.70
19945;DHT22;10134;50.952;6.930;2023-09-19T12:16:53;21.50;95.30
19945;DHT22;10134;50.952;6.930;2023-09-19T12:19:23;21.50;95.20
19945;DHT22;10134;50.952;6.930;2023-09-19T12:21:59;21.50;95.20
19945;DHT22;10134;50.952;6.930;2023-09-19T12:24:32;21.40;94.60
19945;DHT22;10134;50.952;6.930;2023-09-19T12:27:04;21.40;94.60
19945;DHT22;10134;50.952;6.930;2023-09-19T12:29:44;21.40;94.10
19945;DHT22;10134;50.952;6.930;2023-09-19T12:32:13;21.40;94.30
19945;DHT22;10134;50.952;6.930;2023-09-19T12:34:51;21.40;94.10
19945;DHT22;10134;50.952;6.930;2023-09-19T12:37:21;21.40;94.10
19945;DHT22;10134;50.952;6.930;2023-09-19T12:39:52;21.40;93.80
19945;DHT22;10134;50.952;6.930;2023-09-19T12:42:24;21.40;94.00
19945;DHT22;10134;50.952;6.930;2023-09-19T12:44:56;21.40;94.00
19945;DHT22;10134;50.952;6.930;2023-09-19T12:47:28;21.40;93.80
19945;DHT22;10134;50.952;6.930;2023-09-19T12:50:11;21.40;93.80
19945;DHT22;10134;50.952;6.930;2023-09-19T12:52:45;21.50;93.90
19945;DHT22;10134;50.952;6.930;2023-09-19T12:55:23;21.50;93.80
19945;DHT22;10134;50.952;6.930;2023-09-19T12:58:08;21.50;93.50
19945;DHT22;10134;50.952;6.930;2023-09-19T13:00:39;21.60;93.40
19945;DHT22;10134;50.952;6.930;2023-09-19T13:03:13;21.60;93.50
19945;DHT22;10134;50.952;6.930;2023-09-19T13:05:51;21.70;93.50
19945;DHT22;10134;50.952;6.930;2023-09-19T13:08:24;21.80;93.30
19945;DHT22;10134;50.952;6.930;2023-09-19T13:11:04;21.80;93.10
19945;DHT22;10134;50.952;6.930;2023-09-19T13:13:40;21.90;93.30
19945;DHT22;10134;50.952;6.930;2023-09-19T13:16:16;22.10;93.00
19945;DHT22;10134;50.952;6.930;2023-09-19T13:18:50;22.20;92.80
19945;DHT22;10134;50.952;6.930;2023-09-19T13:21:30;22.40;92.40
19945;DHT22;10134;50.952;6.930;2023-09-19T13:24:20;22.60;92.20
19945;DHT22;10134;50.952;6.930;2023-09-19T13:26:50;22.80;91.80
19945;DHT22;10134;50.952;6.930;2023-09-19T13:29:20;23.10;91.40
19945;DHT22;10134;50.952;6.930;2023-09-19T13:31:50;23.40;91.20
19945;DHT22;10134;50.952;6.930;2023-09-19T13:34:20;23.60;91.20
19945;DHT22;10134;50.952;6.930;2023-09-19T13:36:49;23.90;91.00
19945;DHT22;10134;50.952;6.930;2023-09-19T13:39:18;24.30;90.10
19945;DHT22;10134;50.952;6.930;2023-09-19T13:41:47;24.40;89.20
19945;DHT22;10134;50.952;6.930;2023-09-19T13:44:16;24.50;88.60
19945;DHT22;10134;50.952;6.930;2023-09-19T13:46:48;24.30;87.20
19945;DHT22;10134;50.952;6.930;2023-09-19T13:49:18;24.20;88.00
19945;DHT22;10134;50.952;6.930;2023-09-19T13:51:49;24.20;87.80
19945;DHT22;10134;50.952;6.930;2023-09-19T13:54:18;24.20;88.10
19945;DHT22;10134;50.952;6.930;2023-09-19T13:56:48;24.20;87.90
19945;DHT22;10134;50.952;6.930;2023-09-19T13:59:16;24.30;87.70
19945;DHT22;10134;50.952;6.930;2023-09-19T14:01:46;24.40;87.40
19945;DHT22;10134;50.952;6.930;2023-09-19T14:04:15;24.50;86.70
19945;DHT22;10134;50.952;6.930;2023-09-19T14:06:44;24.60;86.60
19945;DHT22;10134;50.952;6.930;2023-09-19T14:09:13;24.60;86.00
19945;DHT22;10134;50.952;6.930;2023-09-19T14:11:46;24.60;86.00
19945;DHT22;10134;50.952;6.930;2023-09-19T14:14:15;24.50;85.60
19945;DHT22;10134;50.952;6.930;2023-09-19T14:16:44;24.40;86.30
19945;DHT22;10134;50.952;6.930;2023-09-19T14:19:14;24.30;86.30
19945;DHT22;10134;50.952;6.930;2023-09-19T14:21:43;24.20;86.40
19945;DHT22;10134;50.952;6.930;2023-09-19T14:24:16;24.00;86.80
19945;DHT22;10134;50.952;6.930;2023-09-19T14:26:46;23.90;87.20
19945;DHT22;10134;50.952;6.930;2023-09-19T14:29:15;23.80;87.10
19945;DHT22;10134;50.952;6.930;2023-09-19T14:31:44;23.70;87.30
19945;DHT22;10134;50.952;6.930;2023-09-19T14:34:14;23.50;87.70
19945;DHT22;10134;50.952;6.930;2023-09-19T14:36:45;23.40;88.20
19945;DHT22;10134;50.952;6.930;2023-09-19T14:39:14;23.30;88.30
19945;DHT22;10134;50.952;6.930;2023-09-19T14:41:43;23.20;89.00
19945;DHT22;10134;50.952;6.930;2023-09-19T14:44:11;23.00;89.40
19945;DHT22;10134;50.952;6.930;2023-09-19T14:46:40;23.00;90.10
19945;DHT22;10134;50.952;6.930;2023-09-19T14:49:09;23.10;90.30
19945;DHT22;10134;50.952;6.930;2023-09-19T14:51:39;23.10;90.30
19945;DHT22;10134;50.952;6.930;2023-09-19T14:54:08;23.10;90.20
19945;DHT22;10134;50.952;6.930;2023-09-19T14:56:37;23.20;90.00
19945;DHT22;10134;50.952;6.930;2023-09-19T14:59:07;23.20;90.20
19945;DHT22;10134;50.952;6.930;2023-09-19T15:01:38;23.20;90.10
19945;DHT22;10134;50.952;6.930;2023-09-19T15:04:08;23.20;90.00
19945;DHT22;10134;50.952;6.930;2023-09-19T15:06:38;23.20;90.10
19945;DHT22;10134;50.952;6.930;2023-09-19T15:09:07;23.20;90.00
19945;DHT22;10134;50.952;6.930;2023-09-19T15:11:36;23.10;89.90
19945;DHT22;10134;50.952;6.930;2023-09-19T15:14:05;23.10;90.00
19945;DHT22;10134;50.952;6.930;2023-09-19T15:16:34;23.00;90.00
19945;DHT22;10134;50.952;6.930;2023-09-19T15:19:05;23.00;90.00
19945;DHT22;10134;50.952;6.930;2023-09-19T15:21:34;22.90;90.20
19945;DHT22;10134;50.952;6.930;2023-09-19T15:24:07;22.80;90.20
19945;DHT22;10134;50.952;6.930;2023-09-19T15:26:37;22.70;90.40
19945;DHT22;10134;50.952;6.930;2023-09-19T15:29:06;22.60;90.40
19945;DHT22;10134;50.952;6.930;2023-09-19T15:31:36;22.60;90.70
19945;DHT22;10134;50.952;6.930;2023-09-19T15:34:05;22.50;90.80
19945;DHT22;10134;50.952;6.930;2023-09-19T15:36:34;22.50;90.80
19945;DHT22;10134;50.952;6.930;2023-09-19T15:39:06;22.40;90.70
19945;DHT22;10134;50.952;6.930;2023-09-19T15:41:39;22.40;91.00
19945;DHT22;10134;50.952;6.930;2023-09-19T15:44:12;22.30;91.10
19945;DHT22;10134;50.952;6.930;2023-09-19T15:46:42;22.30;91.10
19945;DHT22;10134;50.952;6.930;2023-09-19T15:49:14;22.20;91.10
19945;DHT22;10134;50.952;6.930;2023-09-19T15:51:43;22.20;91.10
19945;DHT22;10134;50.952;6.930;2023-09-19T15:54:14;22.20;91.30
19945;DHT22;10134;50.952;6.930;2023-09-19T15:56:43;22.10;91.30
19945;DHT22;10134;50.952;6.930;2023-09-19T15:59:12;22.00;91.40
19945;DHT22;10134;50.952;6.930;2023-09-19T16:01:44;22.00;91.50
19945;DHT22;10134;50.952;6.930;2023-09-19T16:04:13;21.90;91.50
19945;DHT22;10134;50.952;6.930;2023-09-19T16:06:42;21.90;91.60
19945;DHT22;10134;50.952;6.930;2023-09-19T16:09:10;21.90;91.60
19945;DHT22;10134;50.952;6.930;2023-09-19T16:11:40;21.90;91.80